Wahneta, Florida
Current Conditions -  °F | °C
As of 3:47 PM on Friday 24 Oct 2014 (Local Time) from KBOW Reporting Station
Broken Clouds Broken Clouds  
Wind Chill: 81°   Ceiling: 5000
Heat Index: 81°   Visibility: 10mi
Dew Point: 57°   Wind: 12mph
Humidity: 45%   Direction: 50°NE
Pressure: 29.91"   Gusts: 20mph
Location:  27.9768°N, 81.764°W
Report Text: KBOW 241947Z 05010G17KT 10SM BKN050 27/14 A2991
Loading
Personal Weather Stations






























Interactive Weather Map
Tropical Storm Tracking
New forecast layout! Learn more

10-Day Weather Forecast

Advertisements
Track Severe Weather on mobile